createdAt,value
2023-02-11T00:01:28.305Z,8.07
2023-02-11T00:03:56.744Z,8.07
2023-02-11T00:06:27.974Z,8.10
2023-02-11T00:08:56.007Z,8.06
2023-02-11T00:11:25.553Z,8.06
2023-02-11T00:13:53.857Z,8.04
2023-02-11T00:16:22.218Z,8.04
2023-02-11T00:18:53.011Z,8.05
2023-02-11T00:21:23.776Z,8.04
2023-02-11T00:23:53.429Z,8.04
2023-02-11T00:26:24.193Z,8.00
2023-02-11T00:28:52.781Z,8.01
2023-02-11T00:31:22.597Z,7.99
2023-02-11T00:33:50.662Z,8.03
2023-02-11T00:36:22.595Z,8.01
2023-02-11T00:38:52.993Z,7.98
2023-02-11T00:41:21.890Z,8.01
2023-02-11T00:43:50.206Z,8.02
2023-02-11T00:46:18.015Z,8.04
2023-02-11T00:48:48.292Z,8.03
2023-02-11T00:51:16.158Z,8.01
2023-02-11T00:53:43.898Z,8.05
2023-02-11T00:56:15.169Z,8.03
2023-02-11T00:58:42.824Z,8.03
2023-02-11T01:01:10.932Z,8.00
2023-02-11T01:03:38.692Z,7.97
2023-02-11T01:06:07.248Z,8.00
2023-02-11T01:08:34.979Z,8.04
2023-02-11T01:11:05.329Z,8.03
2023-02-11T01:13:37.100Z,8.02
2023-02-11T01:16:08.376Z,8.03
2023-02-11T01:18:36.217Z,8.01
2023-02-11T01:21:04.341Z,8.04
2023-02-11T01:23:32.052Z,8.08
2023-02-11T01:25:59.776Z,8.07
2023-02-11T01:28:30.056Z,8.11
2023-02-11T01:30:59.188Z,8.09
2023-02-11T01:33:26.891Z,8.05
2023-02-11T01:35:54.816Z,8.03
2023-02-11T01:38:24.826Z,8.06
2023-02-11T01:40:55.340Z,8.07
2023-02-11T01:43:23.735Z,8.08
2023-02-11T01:46:01.569Z,8.05
2023-02-11T01:48:33.512Z,8.02
2023-02-11T01:51:07.368Z,8.03
2023-02-11T01:53:53.795Z,8.06
2023-02-11T01:56:39.872Z,8.07
2023-02-11T01:59:13.518Z,8.05
2023-02-11T02:01:49.507Z,8.02
2023-02-11T02:04:19.719Z,8.06
2023-02-11T02:06:55.665Z,8.09
2023-02-11T02:09:27.774Z,8.07
2023-02-11T02:11:55.566Z,8.07
2023-02-11T02:14:23.300Z,8.10
2023-02-11T02:16:52.471Z,8.06
2023-02-11T02:19:50.968Z,8.05
2023-02-11T02:22:54.517Z,8.04
2023-02-11T02:25:49.205Z,7.99
2023-02-11T02:28:44.700Z,8.00
2023-02-11T02:31:38.464Z,7.97
2023-02-11T02:34:15.210Z,7.96
2023-02-11T02:36:49.894Z,7.95
2023-02-11T02:39:22.891Z,7.94
2023-02-11T02:41:53.829Z,7.99
2023-02-11T02:44:22.270Z,8.01
2023-02-11T02:46:50.027Z,8.01
2023-02-11T02:49:19.203Z,8.02
2023-02-11T02:52:01.642Z,8.03
2023-02-11T02:54:58.656Z,7.95
2023-02-11T02:57:33.500Z,7.96
2023-02-11T03:00:12.735Z,7.96
2023-02-11T03:02:47.945Z,7.95
2023-02-11T03:05:22.667Z,7.96
2023-02-11T03:07:55.390Z,7.96
2023-02-11T03:10:28.005Z,7.88
2023-02-11T03:12:58.045Z,7.88
2023-02-11T03:15:29.241Z,7.89
2023-02-11T03:18:01.703Z,7.92
2023-02-11T03:20:32.721Z,7.93
2023-02-11T03:23:07.386Z,7.91
2023-02-11T03:25:42.269Z,7.90
2023-02-11T03:28:15.262Z,7.92
2023-02-11T03:30:48.115Z,7.91
2023-02-11T03:33:20.980Z,7.90
2023-02-11T03:35:55.191Z,7.84
2023-02-11T03:38:27.035Z,7.86
2023-02-11T03:40:57.072Z,7.86
2023-02-11T03:43:29.762Z,7.87
2023-02-11T03:45:58.201Z,7.88
2023-02-11T03:48:31.114Z,7.82
2023-02-11T03:51:03.020Z,7.83
2023-02-11T03:53:30.808Z,7.79
2023-02-11T03:56:03.728Z,7.77
2023-02-11T03:58:31.917Z,7.81
2023-02-11T04:00:59.662Z,7.83
2023-02-11T04:03:29.552Z,7.76
2023-02-11T04:05:57.291Z,7.81
2023-02-11T04:08:26.402Z,7.82
2023-02-11T04:10:54.098Z,7.78
2023-02-11T04:13:21.801Z,7.75
2023-02-11T04:15:50.078Z,7.70
2023-02-11T04:18:18.118Z,7.68
2023-02-11T04:20:45.862Z,7.69
2023-02-11T04:23:13.973Z,7.75
2023-02-11T04:25:43.612Z,7.80
2023-02-11T04:28:11.429Z,7.84
2023-02-11T04:30:39.218Z,7.84
2023-02-11T04:33:07.048Z,7.82
2023-02-11T04:35:34.792Z,7.84
2023-02-11T04:38:02.476Z,7.84
2023-02-11T04:40:30.144Z,7.84
2023-02-11T04:42:59.343Z,7.84
2023-02-11T04:45:27.095Z,7.85
2023-02-11T04:47:54.785Z,7.85
2023-02-11T04:50:22.500Z,7.83
2023-02-11T04:52:50.120Z,7.82
2023-02-11T04:55:17.976Z,7.77
2023-02-11T04:57:45.687Z,7.76
2023-02-11T05:00:16.254Z,7.81
2023-02-11T05:02:43.906Z,7.84
2023-02-11T05:05:14.025Z,7.85
2023-02-11T05:07:41.715Z,7.85
2023-02-11T05:10:09.882Z,7.82
2023-02-11T05:12:37.546Z,7.81
2023-02-11T05:15:05.877Z,7.81
2023-02-11T05:17:34.916Z,7.78
2023-02-11T05:20:05.950Z,7.78
2023-02-11T05:22:33.665Z,7.75
2023-02-11T05:25:01.436Z,7.76
2023-02-11T05:27:29.123Z,7.83
2023-02-11T05:29:56.773Z,7.70
2023-02-11T05:32:40.067Z,7.60
2023-02-11T05:35:07.956Z,7.58
2023-02-11T05:37:35.699Z,7.56
2023-02-11T05:40:03.414Z,7.52
2023-02-11T05:42:31.048Z,7.48
2023-02-11T05:44:58.862Z,7.48
2023-02-11T05:47:26.578Z,7.50
2023-02-11T05:49:56.260Z,7.53
2023-02-11T05:52:24.227Z,7.54
2023-02-11T05:54:52.215Z,7.51
2023-02-11T05:57:20.386Z,7.49
2023-02-11T05:59:48.047Z,7.52
2023-02-11T06:02:16.728Z,7.53
2023-02-11T06:04:44.589Z,7.53
2023-02-11T06:07:13.635Z,7.52
2023-02-11T06:09:41.419Z,7.49
2023-02-11T06:12:09.117Z,7.50
2023-02-11T06:14:36.788Z,7.47
2023-02-11T06:17:05.071Z,7.49
2023-02-11T06:19:32.716Z,7.51
2023-02-11T06:22:00.405Z,7.49
2023-02-11T06:24:54.727Z,7.50
2023-02-11T06:27:17.901Z,7.47
2023-02-11T06:29:45.903Z,7.50
2023-02-11T06:32:36.969Z,7.56
2023-02-11T06:35:01.541Z,7.60
2023-02-11T06:37:29.275Z,7.62
2023-02-11T06:39:58.294Z,7.61
2023-02-11T06:42:25.929Z,7.54
2023-02-11T06:44:53.688Z,7.53
2023-02-11T06:47:21.396Z,7.53
2023-02-11T06:49:49.061Z,7.56
2023-02-11T06:52:16.691Z,7.57
2023-02-11T06:54:44.407Z,7.58
2023-02-11T06:57:13.438Z,7.60
2023-02-11T06:59:41.053Z,7.62
2023-02-11T07:02:10.404Z,7.62
2023-02-11T07:04:38.182Z,7.63
2023-02-11T07:07:05.878Z,7.66
2023-02-11T07:09:33.602Z,7.67
2023-02-11T07:12:01.310Z,7.65
2023-02-11T07:14:30.389Z,7.62
2023-02-11T07:16:58.166Z,7.61
2023-02-11T07:19:25.814Z,7.62
2023-02-11T07:21:53.485Z,7.65
2023-02-11T07:24:21.146Z,7.68
2023-02-11T07:26:48.768Z,7.69
2023-02-11T07:29:16.446Z,7.68
2023-02-11T07:31:47.389Z,7.67
2023-02-11T07:34:15.153Z,7.65
2023-02-11T07:36:43.659Z,7.66
2023-02-11T07:39:11.461Z,7.62
2023-02-11T07:41:39.650Z,7.65
2023-02-11T07:44:07.775Z,7.67
2023-02-11T07:46:35.828Z,7.69
2023-02-11T07:49:04.949Z,7.68
2023-02-11T07:51:32.881Z,7.71
2023-02-11T07:54:01.233Z,7.74
2023-02-11T07:56:29.870Z,7.72
2023-02-11T07:59:00.961Z,7.72
2023-02-11T08:01:29.251Z,7.71
2023-02-11T08:03:58.740Z,7.73
2023-02-11T08:06:30.262Z,7.73
2023-02-11T08:08:58.320Z,7.75
2023-02-11T08:11:27.778Z,7.80
2023-02-11T08:13:57.438Z,7.80
2023-02-11T08:16:27.307Z,7.84
2023-02-11T08:18:57.302Z,7.88
2023-02-11T08:21:27.130Z,7.89
2023-02-11T08:23:55.119Z,7.92
2023-02-11T08:26:24.674Z,7.93
2023-02-11T08:28:53.897Z,7.96
2023-02-11T08:31:23.905Z,7.92
2023-02-11T08:33:52.246Z,7.94
2023-02-11T08:36:23.166Z,7.96
2023-02-11T08:38:52.391Z,8.01
2023-02-11T08:41:20.121Z,8.03
2023-02-11T08:43:47.861Z,8.04
2023-02-11T08:46:18.429Z,8.06
2023-02-11T08:48:47.125Z,8.05
2023-02-11T08:51:17.300Z,8.07
2023-02-11T08:53:45.367Z,8.08
2023-02-11T08:56:17.271Z,8.09
2023-02-11T08:58:45.011Z,8.12
2023-02-11T09:01:13.761Z,8.18
2023-02-11T09:03:41.814Z,8.19
2023-02-11T09:06:11.316Z,8.19
2023-02-11T09:08:40.372Z,8.21
2023-02-11T09:11:08.974Z,8.25
2023-02-11T09:13:38.727Z,8.26
2023-02-11T09:16:07.184Z,8.27
2023-02-11T09:18:34.915Z,8.32
2023-02-11T09:21:07.585Z,8.34
2023-02-11T09:23:35.764Z,8.36
2023-02-11T09:26:09.204Z,8.38
2023-02-11T09:28:38.759Z,8.37
2023-02-11T09:31:07.586Z,8.39
2023-02-11T09:33:35.512Z,8.45
2023-02-11T09:36:03.483Z,8.47
2023-02-11T09:38:31.347Z,8.53
2023-02-11T09:40:59.673Z,8.54
2023-02-11T09:43:34.135Z,8.55
2023-02-11T09:46:03.830Z,8.57
2023-02-11T09:48:39.387Z,8.61
2023-02-11T09:51:14.038Z,8.68
2023-02-11T09:53:44.236Z,8.70
2023-02-11T09:56:14.683Z,8.75
2023-02-11T09:58:44.478Z,8.78
2023-02-11T10:01:21.824Z,8.79
2023-02-11T10:04:01.883Z,8.77
2023-02-11T10:06:40.789Z,8.79
2023-02-11T10:09:21.144Z,8.82
2023-02-11T10:11:59.936Z,8.83
2023-02-11T10:14:50.448Z,8.87
2023-02-11T10:17:29.705Z,8.92
2023-02-11T10:20:09.763Z,8.97
2023-02-11T10:22:42.420Z,9.02
2023-02-11T10:25:21.205Z,9.08
2023-02-11T10:27:49.743Z,9.11
2023-02-11T10:30:24.762Z,9.15
2023-02-11T10:32:58.779Z,9.16
2023-02-11T10:35:27.227Z,9.14
2023-02-11T10:37:56.031Z,9.18
2023-02-11T10:40:25.496Z,9.18
2023-02-11T10:42:56.175Z,9.18
2023-02-11T10:45:29.364Z,9.21
2023-02-11T10:47:59.504Z,9.22
2023-02-11T10:50:29.501Z,9.21
2023-02-11T10:53:14.280Z,9.24
2023-02-11T10:55:51.224Z,9.25
2023-02-11T10:58:27.003Z,9.25
2023-02-11T11:00:56.822Z,9.22
2023-02-11T11:03:28.732Z,9.24
2023-02-11T11:05:59.763Z,9.29
2023-02-11T11:08:40.640Z,9.28
2023-02-11T11:11:10.814Z,9.25
2023-02-11T11:13:40.616Z,9.26
2023-02-11T11:16:23.498Z,9.25
2023-02-11T11:18:54.668Z,9.28
2023-02-11T11:21:27.209Z,9.32
2023-02-11T11:23:56.551Z,9.35
2023-02-11T11:26:26.392Z,9.41
2023-02-11T11:29:01.167Z,9.46
2023-02-11T11:31:32.895Z,9.51
2023-02-11T11:34:05.931Z,9.52
2023-02-11T11:36:37.714Z,9.52
2023-02-11T11:39:19.703Z,9.57
2023-02-11T11:41:52.815Z,9.58
2023-02-11T11:44:27.714Z,9.62
2023-02-11T11:47:24.301Z,9.62
2023-02-11T11:50:06.272Z,9.59
2023-02-11T11:52:45.438Z,9.58
2023-02-11T11:55:19.419Z,9.61
2023-02-11T11:57:47.416Z,9.64
2023-02-11T12:00:17.928Z,9.65
2023-02-11T12:03:20.797Z,9.62
2023-02-11T12:06:01.503Z,9.66
2023-02-11T12:08:43.753Z,9.65
2023-02-11T12:11:20.664Z,9.69
2023-02-11T12:14:05.250Z,9.76
2023-02-11T12:16:42.390Z,9.73
2023-02-11T12:19:42.900Z,9.69
2023-02-11T12:22:27.392Z,9.68
2023-02-11T12:25:10.650Z,9.66
2023-02-11T12:27:49.371Z,9.66
2023-02-11T12:30:41.892Z,9.67
2023-02-11T12:33:21.416Z,9.69
2023-02-11T12:35:59.669Z,9.67
2023-02-11T12:38:52.324Z,9.70
2023-02-11T12:41:58.731Z,9.74
2023-02-11T12:44:35.153Z,9.74
2023-02-11T12:47:13.873Z,9.79
2023-02-11T12:50:03.384Z,9.85
2023-02-11T12:52:46.153Z,9.93
2023-02-11T12:55:23.499Z,9.95
2023-02-11T12:57:54.092Z,9.95
2023-02-11T13:00:25.641Z,9.96
2023-02-11T13:02:59.824Z,10.01
2023-02-11T13:05:30.475Z,10.08
2023-02-11T13:08:05.952Z,10.14
2023-02-11T13:10:37.885Z,10.16
2023-02-11T13:13:17.598Z,10.19
2023-02-11T13:15:52.382Z,10.16
2023-02-11T13:18:35.977Z,10.13
2023-02-11T13:21:33.459Z,10.11
2023-02-11T13:24:09.232Z,10.13
2023-02-11T13:26:47.235Z,10.15
2023-02-11T13:29:23.598Z,10.21
2023-02-11T13:31:55.776Z,10.17
2023-02-11T13:34:28.328Z,10.15
2023-02-11T13:36:56.674Z,10.19
2023-02-11T13:39:25.276Z,10.22
2023-02-11T13:42:04.003Z,10.28
2023-02-11T13:44:35.763Z,10.35
2023-02-11T13:47:06.374Z,10.41
2023-02-11T13:49:40.601Z,10.50
2023-02-11T13:52:23.476Z,10.55
2023-02-11T13:54:52.716Z,10.58
2023-02-11T13:57:40.153Z,10.56
2023-02-11T14:01:06.302Z,10.56
2023-02-11T14:03:57.333Z,10.59
2023-02-11T14:07:01.238Z,10.62
2023-02-11T14:09:40.703Z,10.61
2023-02-11T14:12:24.223Z,10.54
2023-02-11T14:15:39.093Z,10.49
2023-02-11T14:18:59.458Z,10.47
2023-02-11T14:21:35.453Z,10.45
2023-02-11T14:24:46.499Z,10.50
2023-02-11T14:27:26.669Z,10.53
2023-02-11T14:30:14.982Z,10.63
2023-02-11T14:33:01.639Z,10.65
2023-02-11T14:35:45.092Z,10.70
2023-02-11T14:38:22.984Z,10.72
2023-02-11T14:40:56.863Z,10.75
2023-02-11T14:43:29.546Z,10.77
2023-02-11T14:45:59.726Z,10.75
2023-02-11T14:48:32.518Z,10.77
2023-02-11T14:51:03.178Z,10.79
2023-02-11T14:53:33.697Z,10.80
2023-02-11T14:56:01.685Z,10.81
2023-02-11T14:58:31.682Z,10.83
2023-02-11T15:01:02.017Z,10.86
2023-02-11T15:03:42.669Z,10.89
2023-02-11T15:06:19.385Z,10.91
2023-02-11T15:08:50.568Z,10.90
2023-02-11T15:11:21.222Z,10.86
2023-02-11T15:13:50.409Z,10.81
2023-02-11T15:16:22.215Z,10.80
2023-02-11T15:18:54.212Z,10.81
2023-02-11T15:21:24.724Z,10.81
2023-02-11T15:24:01.091Z,10.80
2023-02-11T15:26:29.469Z,10.78
2023-02-11T15:28:57.644Z,10.79
2023-02-11T15:31:28.324Z,10.77
2023-02-11T15:34:07.655Z,10.75
2023-02-11T15:36:37.083Z,10.68
2023-02-11T15:39:18.801Z,10.67
2023-02-11T15:41:48.541Z,10.66
2023-02-11T15:44:29.768Z,10.69
2023-02-11T15:46:57.757Z,10.68
2023-02-11T15:49:27.513Z,10.66
2023-02-11T15:51:58.452Z,10.67
2023-02-11T15:54:29.471Z,10.63
2023-02-11T15:57:03.967Z,10.62
2023-02-11T15:59:38.133Z,10.64
2023-02-11T16:02:17.127Z,10.65
2023-02-11T16:04:53.483Z,10.60
2023-02-11T16:07:43.178Z,10.61
2023-02-11T16:10:25.447Z,10.59
2023-02-11T16:12:55.733Z,10.53
2023-02-11T16:15:44.483Z,10.53
2023-02-11T16:18:39.387Z,10.53
2023-02-11T16:21:16.736Z,10.53
2023-02-11T16:23:51.849Z,10.55
2023-02-11T16:26:28.830Z,10.55
2023-02-11T16:29:07.938Z,10.56
2023-02-11T16:31:37.514Z,10.54
2023-02-11T16:34:13.075Z,10.53
2023-02-11T16:36:42.699Z,10.51
2023-02-11T16:39:11.427Z,10.52
2023-02-11T16:41:39.795Z,10.51
2023-02-11T16:44:08.288Z,10.50
2023-02-11T16:46:38.244Z,10.52
2023-02-11T16:49:11.693Z,10.52
2023-02-11T16:51:41.081Z,10.51
2023-02-11T16:54:14.261Z,10.49
2023-02-11T16:56:42.153Z,10.45
2023-02-11T16:59:10.733Z,10.41
2023-02-11T17:01:40.176Z,10.39
2023-02-11T17:04:11.728Z,10.36
2023-02-11T17:06:39.559Z,10.36
2023-02-11T17:09:08.569Z,10.36
2023-02-11T17:11:37.775Z,10.36
2023-02-11T17:14:05.543Z,10.35
2023-02-11T17:16:33.355Z,10.33
2023-02-11T17:19:04.231Z,10.32
2023-02-11T17:21:32.261Z,10.29
2023-02-11T17:24:00.578Z,10.27
2023-02-11T17:26:28.515Z,10.24
2023-02-11T17:28:57.804Z,10.26
2023-02-11T17:31:25.839Z,10.27
2023-02-11T17:33:53.666Z,10.25
2023-02-11T17:36:21.460Z,10.26
2023-02-11T17:38:49.193Z,10.26
2023-02-11T17:41:16.973Z,10.25
2023-02-11T17:43:44.963Z,10.25
2023-02-11T17:46:14.312Z,10.27
2023-02-11T17:48:42.221Z,10.25
2023-02-11T17:51:23.975Z,10.24
2023-02-11T17:53:51.802Z,10.21
2023-02-11T17:56:19.844Z,10.21
2023-02-11T17:58:50.296Z,10.21
2023-02-11T18:01:19.479Z,10.20
2023-02-11T18:03:50.162Z,10.19
2023-02-11T18:06:17.964Z,10.16
2023-02-11T18:08:45.709Z,10.16
2023-02-11T18:11:15.153Z,10.13
2023-02-11T18:13:43.377Z,10.13
2023-02-11T18:16:15.529Z,10.13
2023-02-11T18:18:53.958Z,10.15
2023-02-11T18:21:23.385Z,10.13
2023-02-11T18:23:51.557Z,10.13
2023-02-11T18:26:21.615Z,10.13
2023-02-11T18:28:49.478Z,10.09
2023-02-11T18:31:18.332Z,10.13
2023-02-11T18:33:47.910Z,10.13
2023-02-11T18:36:16.928Z,10.12
2023-02-11T18:38:49.906Z,10.08
2023-02-11T18:41:17.700Z,10.09
2023-02-11T18:43:45.634Z,10.11
2023-02-11T18:46:15.389Z,10.09
2023-02-11T18:48:44.777Z,10.08
2023-02-11T18:51:15.863Z,10.09
2023-02-11T18:53:44.436Z,10.11
2023-02-11T18:56:15.279Z,10.11
2023-02-11T18:58:43.479Z,10.13
2023-02-11T19:01:13.924Z,10.12
2023-02-11T19:03:41.803Z,10.08
2023-02-11T19:06:16.913Z,10.04
2023-02-11T19:08:44.693Z,9.99
2023-02-11T19:11:12.955Z,10.00
2023-02-11T19:13:40.703Z,10.01
2023-02-11T19:16:11.438Z,10.03
2023-02-11T19:18:39.654Z,10.01
2023-02-11T19:21:09.238Z,10.01
2023-02-11T19:23:39.379Z,10.00
2023-02-11T19:26:07.432Z,9.99
2023-02-11T19:28:37.195Z,10.00
2023-02-11T19:31:09.280Z,10.02
2023-02-11T19:33:37.781Z,10.01
2023-02-11T19:36:07.423Z,9.99
2023-02-11T19:38:35.820Z,9.99
2023-02-11T19:41:05.427Z,9.99
2023-02-11T19:43:33.340Z,9.94
2023-02-11T19:46:02.950Z,9.95
2023-02-11T19:48:31.129Z,9.95
2023-02-11T19:50:59.374Z,9.95
2023-02-11T19:53:27.731Z,9.96
2023-02-11T19:55:55.552Z,9.96
2023-02-11T19:58:24.718Z,9.95
2023-02-11T20:00:52.554Z,9.95
2023-02-11T20:03:20.291Z,9.95
2023-02-11T20:05:48.045Z,9.95
2023-02-11T20:08:17.122Z,9.93
2023-02-11T20:10:44.948Z,9.95
2023-02-11T20:13:12.684Z,9.92
2023-02-11T20:15:41.955Z,9.89
2023-02-11T20:18:09.700Z,9.92
2023-02-11T20:20:39.383Z,9.92
2023-02-11T20:23:07.144Z,9.91
2023-02-11T20:25:34.933Z,9.90
2023-02-11T20:28:03.678Z,9.91
2023-02-11T20:30:31.465Z,9.92
2023-02-11T20:33:00.599Z,9.89
2023-02-11T20:35:28.331Z,9.89
2023-02-11T20:37:56.161Z,9.87
2023-02-11T20:40:23.903Z,9.88
2023-02-11T20:42:52.417Z,9.91
2023-02-11T20:45:20.110Z,9.91
2023-02-11T20:47:47.846Z,9.89
2023-02-11T20:50:17.054Z,9.89
2023-02-11T20:52:44.847Z,9.90
2023-02-11T20:55:13.124Z,9.89
2023-02-11T20:57:40.847Z,9.87
2023-02-11T21:00:13.139Z,9.86
2023-02-11T21:02:42.569Z,9.86
2023-02-11T21:05:10.326Z,9.87
2023-02-11T21:07:39.497Z,9.89
2023-02-11T21:10:16.990Z,9.88
2023-02-11T21:12:44.711Z,9.90
2023-02-11T21:15:13.603Z,9.88
2023-02-11T21:17:41.419Z,9.86
2023-02-11T21:20:15.097Z,9.85
2023-02-11T21:22:44.131Z,9.84
2023-02-11T21:25:11.833Z,9.85
2023-02-11T21:27:39.739Z,9.83
2023-02-11T21:30:08.813Z,9.80
2023-02-11T21:32:36.584Z,9.79
2023-02-11T21:35:04.348Z,9.79
2023-02-11T21:37:32.254Z,9.78
2023-02-11T21:40:01.404Z,9.79
2023-02-11T21:42:29.155Z,9.79
2023-02-11T21:44:56.876Z,9.77
2023-02-11T21:47:24.591Z,9.75
2023-02-11T21:49:52.380Z,9.76
2023-02-11T21:52:20.126Z,9.76
2023-02-11T21:54:50.505Z,9.78
2023-02-11T21:57:19.827Z,9.78
2023-02-11T21:59:47.514Z,9.76
2023-02-11T22:02:15.217Z,9.74
2023-02-11T22:04:42.978Z,9.76
2023-02-11T22:07:10.769Z,9.78
2023-02-11T22:09:39.328Z,9.78
2023-02-11T22:12:08.669Z,9.74
2023-02-11T22:14:38.276Z,9.72
2023-02-11T22:17:08.488Z,9.71
2023-02-11T22:19:36.232Z,9.71
2023-02-11T22:22:04.069Z,9.71
2023-02-11T22:24:31.728Z,9.73
2023-02-11T22:26:59.421Z,9.74
2023-02-11T22:29:27.117Z,9.74
2023-02-11T22:31:56.262Z,9.76
2023-02-11T22:34:24.011Z,9.75
2023-02-11T22:36:51.723Z,9.79
2023-02-11T22:39:19.473Z,9.79
2023-02-11T22:41:49.952Z,9.77
2023-02-11T22:44:18.368Z,9.79
2023-02-11T22:46:46.060Z,9.78
2023-02-11T22:49:17.208Z,9.76
2023-02-11T22:51:44.995Z,9.73
2023-02-11T22:54:15.337Z,9.64
2023-02-11T22:56:43.404Z,9.62
2023-02-11T22:59:13.896Z,9.60
2023-02-11T23:01:42.384Z,9.63
2023-02-11T23:04:12.881Z,9.61
2023-02-11T23:06:42.021Z,9.62
2023-02-11T23:09:12.180Z,9.62
2023-02-11T23:11:40.951Z,9.63
2023-02-11T23:14:11.952Z,9.60
2023-02-11T23:16:39.943Z,9.59
2023-02-11T23:19:09.951Z,9.61
2023-02-11T23:21:41.056Z,9.53
2023-02-11T23:24:11.915Z,9.57
2023-02-11T23:26:40.372Z,9.58
2023-02-11T23:29:08.857Z,9.60
2023-02-11T23:31:39.803Z,9.63
2023-02-11T23:34:08.518Z,9.65
2023-02-11T23:36:36.579Z,9.66
2023-02-11T23:39:15.301Z,9.60
2023-02-11T23:41:43.070Z,9.58
2023-02-11T23:44:11.761Z,9.62
2023-02-11T23:46:39.847Z,9.63
2023-02-11T23:49:07.652Z,9.62
2023-02-11T23:51:35.412Z,9.60
2023-02-11T23:54:03.390Z,9.61
2023-02-11T23:56:33.130Z,9.64
2023-02-11T23:59:00.957Z,9.64
